AFL322 UIUU-VTSP
Flight info
| Callsign | AFL322 |
|---|---|
| Flight time | 1h 52m |
| Altitude | 38000 |
| Route | TEGMI A809 LETBI B480 MORIT B330 UBKER G212 SGM A581 SAGAG B218 LPB B346 PCB W39 NOBER W21 BKK Y8 MOTNA G458 MENEX Y8 IKERA G458 LAMUL Y8 SAVSA |
| Aircraft | B773/H-V/N |
Departure
| Time | 2026-04-22 17:22 |
|---|---|
| Airport | Baikal International Airport (UIUU) |
Arrival
| Time | 2026-04-22 19:14 |
|---|---|
| Airport | Phuket International Airport (VTSP) |
| Time | Latitude | Longitude | Altitude | Speed | Heading |
|---|---|---|---|---|---|
| 2026-04-22 17:09 | 51.80579 | 107.44240 | 1687 ft | 0 kts | 168° |
| 2026-04-22 17:16 | 51.80587 | 107.44237 | 1692 ft | 2 kts | 161° |
| 2026-04-22 17:16 | 51.80603 | 107.44229 | 1687 ft | 2 kts | 156° |
| 2026-04-22 17:17 | 51.80617 | 107.44215 | 1692 ft | 2 kts | 126° |
| 2026-04-22 17:17 | 51.80622 | 107.44191 | 1688 ft | 2 kts | 81° |
| 2026-04-22 17:17 | 51.80621 | 107.44181 | 1688 ft | 0 kts | 78° |
| 2026-04-22 17:18 | 51.80625 | 107.44214 | 1692 ft | 9 kts | 77° |
| 2026-04-22 17:18 | 51.80665 | 107.44303 | 1691 ft | 12 kts | 18° |
| 2026-04-22 17:19 | 51.80789 | 107.43969 | 1691 ft | 34 kts | 257° |
| 2026-04-22 17:19 | 51.80660 | 107.42974 | 1689 ft | 55 kts | 257° |
| 2026-04-22 17:20 | 51.80519 | 107.41892 | 1690 ft | 18 kts | 258° |
| 2026-04-22 17:20 | 51.80642 | 107.41701 | 1693 ft | 11 kts | 22° |
| 2026-04-22 17:21 | 51.80675 | 107.41768 | 1693 ft | 0 kts | 71° |
| 2026-04-22 17:21 | 51.80756 | 107.42334 | 1694 ft | 89 kts | 78° |
| 2026-04-22 17:22 | 51.81248 | 107.45929 | 2154 ft | 207 kts | 76° |
| 2026-04-22 17:22 | 51.81538 | 107.48219 | 3483 ft | 214 kts | 73° |
| 2026-04-22 17:22 | 51.82119 | 107.53472 | 4325 ft | 254 kts | 90° |
| 2026-04-22 17:23 | 51.81543 | 107.56242 | 4809 ft | 272 kts | 124° |
| 2026-04-22 17:23 | 51.78176 | 107.58831 | 6119 ft | 280 kts | 188° |
| 2026-04-22 17:23 | 51.76367 | 107.57886 | 6841 ft | 272 kts | 221° |
| 2026-04-22 17:24 | 51.75112 | 107.55698 | 7504 ft | 264 kts | 240° |
| 2026-04-22 17:24 | 51.74076 | 107.53238 | 8219 ft | 265 kts | 241° |
| 2026-04-22 17:24 | 51.73059 | 107.50767 | 9072 ft | 264 kts | 241° |
| 2026-04-22 17:24 | 51.72046 | 107.48302 | 9907 ft | 263 kts | 242° |
| 2026-04-22 17:25 | 51.71026 | 107.45826 | 10511 ft | 269 kts | 241° |
| 2026-04-22 17:25 | 51.69953 | 107.43222 | 10699 ft | 291 kts | 241° |
| 2026-04-22 17:25 | 51.68784 | 107.40406 | 10894 ft | 312 kts | 240° |
| 2026-04-22 17:25 | 51.67533 | 107.37409 | 11083 ft | 333 kts | 240° |
| 2026-04-22 17:26 | 51.66210 | 107.34274 | 11675 ft | 342 kts | 240° |
| 2026-04-22 17:26 | 51.64855 | 107.31086 | 12387 ft | 347 kts | 240° |
| 2026-04-22 17:26 | 51.63488 | 107.27877 | 13224 ft | 348 kts | 240° |
| 2026-04-22 17:26 | 51.62133 | 107.24706 | 14057 ft | 349 kts | 240° |
| 2026-04-22 17:27 | 51.61199 | 107.22521 | 14571 ft | 350 kts | 240° |
| 2026-04-22 17:27 | 51.59362 | 107.18222 | 15511 ft | 355 kts | 241° |
| 2026-04-22 17:27 | 51.57956 | 107.14932 | 16227 ft | 358 kts | 241° |
| 2026-04-22 17:27 | 51.56540 | 107.11625 | 16953 ft | 361 kts | 241° |
| 2026-04-22 17:28 | 51.55104 | 107.08273 | 17653 ft | 365 kts | 241° |
| 2026-04-22 17:28 | 51.53657 | 107.04901 | 18337 ft | 368 kts | 241° |
| 2026-04-22 17:28 | 51.52193 | 107.01495 | 18928 ft | 372 kts | 241° |
| 2026-04-22 17:28 | 51.50715 | 106.98062 | 19508 ft | 375 kts | 241° |
| 2026-04-22 17:29 | 51.49228 | 106.94611 | 20099 ft | 378 kts | 241° |
| 2026-04-22 17:29 | 51.47722 | 106.91122 | 20694 ft | 381 kts | 241° |
| 2026-04-22 17:29 | 51.46208 | 106.87619 | 21282 ft | 384 kts | 241° |
| 2026-04-22 17:29 | 51.44681 | 106.84090 | 21862 ft | 387 kts | 241° |
| 2026-04-22 17:30 | 51.43156 | 106.80567 | 22382 ft | 391 kts | 241° |
| 2026-04-22 17:30 | 51.41601 | 106.76983 | 22941 ft | 394 kts | 241° |
| 2026-04-22 17:30 | 51.40054 | 106.73329 | 23480 ft | 395 kts | 244° |
| 2026-04-22 17:30 | 51.38643 | 106.69538 | 23951 ft | 397 kts | 246° |
| 2026-04-22 17:31 | 51.37301 | 106.65677 | 24411 ft | 398 kts | 247° |
| 2026-04-22 17:31 | 51.35971 | 106.61775 | 24871 ft | 400 kts | 247° |
| 2026-04-22 17:31 | 51.30895 | 106.47087 | 26468 ft | 409 kts | 247° |
| 2026-04-22 17:31 | 51.19845 | 106.16057 | 29343 ft | 425 kts | 247° |
| 2026-04-22 17:32 | 51.16266 | 106.06080 | 29950 ft | 432 kts | 247° |
| 2026-04-22 17:32 | 51.10303 | 105.89556 | 31345 ft | 428 kts | 247° |
| 2026-04-22 17:32 | 51.04355 | 105.73180 | 32536 ft | 424 kts | 247° |
| 2026-04-22 17:32 | 50.98452 | 105.57023 | 33645 ft | 421 kts | 246° |
| 2026-04-22 17:33 | 50.94564 | 105.46442 | 34270 ft | 418 kts | 246° |
| 2026-04-22 17:33 | 50.86673 | 105.25086 | 35005 ft | 423 kts | 246° |
| 2026-04-22 17:33 | 50.80645 | 105.08890 | 35321 ft | 430 kts | 246° |
| 2026-04-22 17:33 | 50.74508 | 104.92516 | 35614 ft | 436 kts | 245° |
| 2026-04-22 17:34 | 50.70395 | 104.81599 | 35800 ft | 439 kts | 245° |
| 2026-04-22 17:34 | 50.62031 | 104.59540 | 36091 ft | 444 kts | 245° |
| 2026-04-22 17:34 | 50.55647 | 104.42827 | 36252 ft | 447 kts | 245° |
| 2026-04-22 17:34 | 50.49195 | 104.26046 | 36359 ft | 450 kts | 245° |
| 2026-04-22 17:35 | 50.42679 | 104.09206 | 36488 ft | 452 kts | 244° |
| 2026-04-22 17:35 | 50.40138 | 104.02669 | 36547 ft | 453 kts | 244° |
| 2026-04-22 17:35 | 50.36848 | 103.94233 | 36603 ft | 454 kts | 244° |
| 2026-04-22 17:36 | 50.34088 | 103.87171 | 36638 ft | 454 kts | 244° |
| 2026-04-22 17:36 | 50.30795 | 103.78770 | 36702 ft | 455 kts | 244° |
| 2026-04-22 17:37 | 50.27470 | 103.70316 | 36749 ft | 456 kts | 244° |
| 2026-04-22 17:37 | 50.24134 | 103.61859 | 36803 ft | 456 kts | 244° |
| 2026-04-22 17:38 | 50.20028 | 103.54235 | 36785 ft | 476 kts | 221° |
| 2026-04-22 17:38 | 50.17127 | 103.51722 | 36802 ft | 489 kts | 210° |
| 2026-04-22 17:38 | 50.13838 | 103.50131 | 36792 ft | 504 kts | 195° |
| 2026-04-22 17:39 | 50.06774 | 103.49325 | 36828 ft | 512 kts | 189° |
| 2026-04-22 17:40 | 49.96072 | 103.48626 | 36854 ft | 513 kts | 190° |
| 2026-04-22 17:40 | 49.88935 | 103.48006 | 36868 ft | 514 kts | 191° |
| 2026-04-22 17:41 | 49.81795 | 103.47309 | 36890 ft | 514 kts | 191° |
| 2026-04-22 17:41 | 49.74639 | 103.46599 | 36911 ft | 515 kts | 191° |
| 2026-04-22 17:42 | 49.67515 | 103.45901 | 36954 ft | 516 kts | 191° |
| 2026-04-22 17:42 | 49.60347 | 103.45208 | 36996 ft | 516 kts | 191° |
| 2026-04-22 17:43 | 49.53172 | 103.44518 | 37042 ft | 516 kts | 191° |
| 2026-04-22 17:43 | 49.45995 | 103.43828 | 37058 ft | 516 kts | 191° |
| 2026-04-22 17:44 | 49.38819 | 103.43142 | 37088 ft | 516 kts | 191° |
| 2026-04-22 17:44 | 49.31702 | 103.42462 | 37109 ft | 516 kts | 191° |
| 2026-04-22 17:45 | 49.24527 | 103.41778 | 37146 ft | 516 kts | 191° |
| 2026-04-22 17:45 | 49.17359 | 103.41098 | 37162 ft | 516 kts | 191° |
| 2026-04-22 17:46 | 49.10195 | 103.40419 | 37186 ft | 516 kts | 191° |
| 2026-04-22 17:46 | 49.03032 | 103.39743 | 37205 ft | 516 kts | 191° |
| 2026-04-22 17:47 | 48.95862 | 103.39068 | 37227 ft | 516 kts | 191° |
| 2026-04-22 17:47 | 48.88689 | 103.38394 | 37244 ft | 516 kts | 191° |
| 2026-04-22 17:48 | 48.81573 | 103.37728 | 37276 ft | 516 kts | 191° |
| 2026-04-22 17:48 | 48.74402 | 103.37059 | 37298 ft | 516 kts | 191° |
| 2026-04-22 17:49 | 48.67238 | 103.36392 | 37323 ft | 516 kts | 191° |
| 2026-04-22 17:49 | 48.60057 | 103.35726 | 37350 ft | 515 kts | 191° |
| 2026-04-22 17:50 | 48.52941 | 103.35067 | 37380 ft | 515 kts | 190° |
| 2026-04-22 17:50 | 48.45783 | 103.34406 | 37396 ft | 515 kts | 190° |
| 2026-04-22 17:51 | 48.38610 | 103.33747 | 37426 ft | 515 kts | 190° |
| 2026-04-22 17:51 | 48.31442 | 103.33089 | 37436 ft | 515 kts | 190° |
| 2026-04-22 17:52 | 48.24283 | 103.32434 | 37467 ft | 516 kts | 190° |
| 2026-04-22 17:52 | 48.17165 | 103.31784 | 37488 ft | 515 kts | 190° |
| 2026-04-22 17:53 | 48.09995 | 103.31132 | 37514 ft | 515 kts | 190° |
| 2026-04-22 17:53 | 48.02830 | 103.30482 | 37535 ft | 515 kts | 190° |
| 2026-04-22 17:54 | 47.95670 | 103.29834 | 37552 ft | 515 kts | 190° |
| 2026-04-22 17:54 | 47.88512 | 103.29188 | 37574 ft | 514 kts | 189° |
| 2026-04-22 17:55 | 47.81414 | 103.28550 | 37597 ft | 514 kts | 189° |
| 2026-04-22 17:55 | 47.74259 | 103.27907 | 37624 ft | 514 kts | 189° |
| 2026-04-22 17:56 | 47.67122 | 103.27269 | 37661 ft | 513 kts | 189° |
| 2026-04-22 17:56 | 47.60007 | 103.26635 | 37778 ft | 511 kts | 189° |
| 2026-04-22 17:57 | 47.35174 | 103.24433 | 37767 ft | 506 kts | 189° |
| 2026-04-22 17:57 | 47.25476 | 103.23578 | 37838 ft | 502 kts | 189° |
| 2026-04-22 17:58 | 47.18510 | 103.22966 | 37839 ft | 501 kts | 189° |
| 2026-04-22 17:58 | 47.11553 | 103.22356 | 37833 ft | 500 kts | 189° |
| 2026-04-22 17:59 | 47.04602 | 103.21748 | 37827 ft | 499 kts | 189° |
| 2026-04-22 17:59 | 46.97716 | 103.21147 | 37822 ft | 498 kts | 189° |
| 2026-04-22 18:00 | 46.91951 | 103.20646 | 37812 ft | 497 kts | 189° |
| 2026-04-22 18:00 | 46.83909 | 103.19948 | 37808 ft | 497 kts | 189° |
| 2026-04-22 18:01 | 46.77009 | 103.19351 | 37802 ft | 496 kts | 189° |
| 2026-04-22 18:01 | 46.73547 | 103.19051 | 37544 ft | 500 kts | 189° |
| 2026-04-22 18:01 | 46.70047 | 103.18746 | 37046 ft | 504 kts | 189° |
| 2026-04-22 18:01 | 46.66536 | 103.18441 | 36808 ft | 506 kts | 189° |
| 2026-04-22 18:02 | 46.55460 | 103.17493 | 36771 ft | 506 kts | 189° |
| 2026-04-22 18:02 | 45.99059 | 103.12711 | 36744 ft | 505 kts | 189° |
| 2026-04-22 18:03 | 45.42728 | 103.08023 | 36781 ft | 507 kts | 188° |
| 2026-04-22 18:03 | 44.86214 | 103.03421 | 36802 ft | 510 kts | 187° |
| 2026-04-22 18:04 | 44.29452 | 102.98896 | 36798 ft | 511 kts | 187° |
| 2026-04-22 18:04 | 43.50524 | 102.92737 | 37002 ft | 509 kts | 186° |
| 2026-04-22 18:05 | 43.37899 | 102.91778 | 37000 ft | 510 kts | 186° |
| 2026-04-22 18:05 | 43.15205 | 102.90024 | 36886 ft | 513 kts | 186° |
| 2026-04-22 18:06 | 42.58178 | 102.85728 | 36862 ft | 512 kts | 186° |
| 2026-04-22 18:06 | 42.04011 | 102.81816 | 36881 ft | 515 kts | 182° |
| 2026-04-22 18:07 | 41.60424 | 102.90052 | 36871 ft | 519 kts | 174° |
| 2026-04-22 18:07 | 40.93825 | 103.02744 | 36904 ft | 521 kts | 174° |
| 2026-04-22 18:08 | 40.36351 | 103.13523 | 36913 ft | 521 kts | 174° |
| 2026-04-22 18:08 | 39.78838 | 103.24127 | 36901 ft | 522 kts | 175° |
| 2026-04-22 18:09 | 39.21107 | 103.34593 | 36929 ft | 522 kts | 175° |
| 2026-04-22 18:09 | 38.63512 | 103.44863 | 36921 ft | 521 kts | 175° |
| 2026-04-22 18:10 | 38.06126 | 103.54927 | 36963 ft | 520 kts | 176° |
| 2026-04-22 18:10 | 37.48766 | 103.64828 | 37003 ft | 519 kts | 176° |
| 2026-04-22 18:11 | 36.94198 | 103.74111 | 37081 ft | 520 kts | 176° |
| 2026-04-22 18:11 | 36.39104 | 103.83347 | 37058 ft | 514 kts | 177° |
| 2026-04-22 18:12 | 35.85150 | 103.92263 | 36988 ft | 503 kts | 177° |
| 2026-04-22 18:12 | 35.39372 | 103.99733 | 37046 ft | 499 kts | 178° |
| 2026-04-22 18:13 | 34.74929 | 104.10102 | 37153 ft | 508 kts | 178° |
| 2026-04-22 18:13 | 34.18604 | 104.19043 | 37037 ft | 507 kts | 178° |
| 2026-04-22 18:14 | 33.96581 | 104.22498 | 37026 ft | 499 kts | 179° |
| 2026-04-22 18:14 | 33.63916 | 104.27597 | 36952 ft | 492 kts | 179° |
| 2026-04-22 18:15 | 33.54501 | 104.29054 | 37041 ft | 489 kts | 179° |
| 2026-04-22 18:15 | 33.46826 | 104.30242 | 37078 ft | 492 kts | 179° |
| 2026-04-22 18:16 | 33.36553 | 104.31827 | 37057 ft | 494 kts | 179° |
| 2026-04-22 18:16 | 33.29261 | 104.32954 | 37043 ft | 495 kts | 179° |
| 2026-04-22 18:17 | 33.00081 | 104.37452 | 37112 ft | 500 kts | 180° |
| 2026-04-22 18:17 | 32.49333 | 104.45197 | 37093 ft | 498 kts | 181° |
| 2026-04-22 18:17 | 32.23122 | 104.49152 | 36967 ft | 491 kts | 181° |
| 2026-04-22 18:18 | 32.18219 | 104.49887 | 37006 ft | 485 kts | 182° |
| 2026-04-22 18:18 | 31.93557 | 104.53598 | 36964 ft | 469 kts | 183° |
| 2026-04-22 18:18 | 31.90925 | 104.53987 | 36965 ft | 469 kts | 183° |
| 2026-04-22 18:19 | 31.55077 | 104.59293 | 37081 ft | 486 kts | 182° |
| 2026-04-22 18:19 | 31.06191 | 104.66081 | 36970 ft | 475 kts | 192° |
| 2026-04-22 18:19 | 30.97122 | 104.64263 | 37016 ft | 449 kts | 204° |
| 2026-04-22 18:20 | 30.82973 | 104.59362 | 36942 ft | 442 kts | 205° |
| 2026-04-22 18:20 | 30.55386 | 104.50052 | 37122 ft | 453 kts | 204° |
| 2026-04-22 18:21 | 30.06073 | 104.33613 | 37004 ft | 460 kts | 203° |
| 2026-04-22 18:21 | 29.73561 | 104.22870 | 36949 ft | 449 kts | 203° |
| 2026-04-22 18:22 | 29.26533 | 104.07439 | 37081 ft | 444 kts | 204° |
| 2026-04-22 18:22 | 28.85974 | 103.94257 | 37132 ft | 460 kts | 204° |
| 2026-04-22 18:23 | 28.37293 | 103.78582 | 37085 ft | 459 kts | 206° |
| 2026-04-22 18:23 | 28.10245 | 103.69945 | 37041 ft | 447 kts | 206° |
| 2026-04-22 18:24 | 27.99174 | 103.66407 | 37176 ft | 452 kts | 207° |
| 2026-04-22 18:24 | 27.76619 | 103.59222 | 37147 ft | 462 kts | 207° |
| 2026-04-22 18:24 | 27.32666 | 103.45370 | 37017 ft | 448 kts | 207° |
| 2026-04-22 18:25 | 27.27458 | 103.43734 | 37098 ft | 443 kts | 207° |
| 2026-04-22 18:25 | 26.99172 | 103.34863 | 37072 ft | 443 kts | 208° |
| 2026-04-22 18:26 | 26.80607 | 103.29051 | 37068 ft | 454 kts | 207° |
| 2026-04-22 18:26 | 26.70917 | 103.26058 | 37061 ft | 458 kts | 207° |
| 2026-04-22 18:27 | 26.58278 | 103.22122 | 36998 ft | 450 kts | 207° |
| 2026-04-22 18:27 | 26.41818 | 103.17073 | 36920 ft | 433 kts | 208° |
| 2026-04-22 18:27 | 26.36154 | 103.15313 | 36960 ft | 434 kts | 208° |
| 2026-04-22 18:28 | 26.27162 | 103.12510 | 36982 ft | 445 kts | 208° |
| 2026-04-22 18:28 | 26.07033 | 103.06306 | 36935 ft | 458 kts | 207° |
| 2026-04-22 18:28 | 25.98535 | 103.03715 | 36906 ft | 454 kts | 207° |
| 2026-04-22 18:29 | 25.51567 | 102.89369 | 36935 ft | 449 kts | 207° |
| 2026-04-22 18:29 | 25.13262 | 102.77758 | 37018 ft | 449 kts | 207° |
| 2026-04-22 18:30 | 24.65974 | 102.63513 | 36857 ft | 449 kts | 206° |
| 2026-04-22 18:31 | 24.17333 | 102.48988 | 36870 ft | 455 kts | 205° |
| 2026-04-22 18:31 | 23.68267 | 102.34448 | 36847 ft | 460 kts | 204° |
| 2026-04-22 18:32 | 23.32121 | 102.23811 | 36760 ft | 459 kts | 203° |
| 2026-04-22 18:32 | 23.23063 | 102.21169 | 36836 ft | 453 kts | 203° |
| 2026-04-22 18:32 | 23.04851 | 102.15833 | 36943 ft | 457 kts | 202° |
| 2026-04-22 18:33 | 22.80305 | 102.08678 | 36951 ft | 463 kts | 202° |
| 2026-04-22 18:33 | 22.55231 | 102.01389 | 36831 ft | 468 kts | 201° |
| 2026-04-22 18:33 | 22.30445 | 101.94220 | 36744 ft | 463 kts | 201° |
| 2026-04-22 18:34 | 22.21574 | 101.91667 | 36805 ft | 457 kts | 201° |
| 2026-04-22 18:34 | 21.95707 | 101.84212 | 36734 ft | 455 kts | 201° |
| 2026-04-22 18:35 | 21.75428 | 101.78392 | 36887 ft | 459 kts | 201° |
| 2026-04-22 18:35 | 21.26553 | 101.64435 | 36867 ft | 468 kts | 200° |
| 2026-04-22 18:36 | 21.06385 | 101.60139 | 36822 ft | 464 kts | 194° |
| 2026-04-22 18:36 | 20.73257 | 101.54668 | 36779 ft | 458 kts | 194° |
| 2026-04-22 18:37 | 20.22461 | 101.46239 | 36922 ft | 471 kts | 193° |
| 2026-04-22 18:37 | 19.96264 | 101.41916 | 36919 ft | 483 kts | 192° |
| 2026-04-22 18:37 | 19.69875 | 101.37586 | 36856 ft | 487 kts | 192° |
| 2026-04-22 18:38 | 19.29897 | 101.31045 | 36763 ft | 477 kts | 192° |
| 2026-04-22 18:38 | 19.04139 | 101.26840 | 36824 ft | 470 kts | 192° |
| 2026-04-22 18:39 | 18.51868 | 101.18353 | 36879 ft | 483 kts | 192° |
| 2026-04-22 18:39 | 18.25110 | 101.14032 | 36854 ft | 490 kts | 192° |
| 2026-04-22 18:39 | 17.98195 | 101.09702 | 36746 ft | 486 kts | 192° |
| 2026-04-22 18:39 | 17.80184 | 101.06809 | 36684 ft | 480 kts | 191° |
| 2026-04-22 18:40 | 17.56969 | 101.03088 | 36747 ft | 469 kts | 191° |
| 2026-04-22 18:40 | 17.05321 | 100.94842 | 36882 ft | 479 kts | 191° |
| 2026-04-22 18:41 | 16.75031 | 100.90033 | 36826 ft | 491 kts | 191° |
| 2026-04-22 18:41 | 16.22234 | 100.81682 | 36711 ft | 480 kts | 190° |
| 2026-04-22 18:42 | 15.89470 | 100.76522 | 36790 ft | 473 kts | 190° |
| 2026-04-22 18:42 | 15.65298 | 100.72724 | 36895 ft | 478 kts | 190° |
| 2026-04-22 18:42 | 15.59301 | 100.71785 | 36831 ft | 483 kts | 190° |
| 2026-04-22 18:43 | 15.08498 | 100.64171 | 36781 ft | 492 kts | 188° |
| 2026-04-22 18:43 | 14.59604 | 100.57546 | 36686 ft | 477 kts | 188° |
| 2026-04-22 18:44 | 14.44504 | 100.55498 | 36834 ft | 482 kts | 188° |
| 2026-04-22 18:44 | 14.32768 | 100.53904 | 36894 ft | 487 kts | 188° |
| 2026-04-22 18:44 | 14.20976 | 100.52304 | 36795 ft | 493 kts | 188° |
| 2026-04-22 18:45 | 13.84446 | 100.47359 | 36772 ft | 495 kts | 188° |
| 2026-04-22 18:45 | 13.46610 | 100.42257 | 36688 ft | 485 kts | 187° |
| 2026-04-22 18:46 | 13.10930 | 100.36308 | 36826 ft | 477 kts | 196° |
| 2026-04-22 18:46 | 12.83096 | 100.27573 | 36843 ft | 492 kts | 196° |
| 2026-04-22 18:47 | 12.30524 | 100.11515 | 36734 ft | 493 kts | 196° |
| 2026-04-22 18:47 | 11.99928 | 100.02192 | 36800 ft | 481 kts | 196° |
| 2026-04-22 18:48 | 11.51527 | 99.87494 | 36929 ft | 491 kts | 195° |
| 2026-04-22 18:48 | 11.16589 | 99.76910 | 36788 ft | 497 kts | 195° |
| 2026-04-22 18:49 | 10.77722 | 99.64758 | 36784 ft | 484 kts | 196° |
| 2026-04-22 18:49 | 10.26096 | 99.48641 | 36902 ft | 491 kts | 196° |
| 2026-04-22 18:50 | 9.91809 | 99.37963 | 36882 ft | 498 kts | 196° |
| 2026-04-22 18:50 | 9.85245 | 99.35920 | 36821 ft | 488 kts | 196° |
| 2026-04-22 18:51 | 9.78696 | 99.33885 | 35794 ft | 504 kts | 196° |
| 2026-04-22 18:51 | 9.75341 | 99.32843 | 35063 ft | 505 kts | 196° |
| 2026-04-22 18:51 | 9.71967 | 99.31795 | 34218 ft | 509 kts | 196° |
| 2026-04-22 18:52 | 9.68609 | 99.30751 | 33322 ft | 512 kts | 196° |
| 2026-04-22 18:52 | 9.65189 | 99.29689 | 32402 ft | 514 kts | 195° |
| 2026-04-22 18:52 | 9.61757 | 99.28622 | 31513 ft | 516 kts | 195° |
| 2026-04-22 18:52 | 9.58308 | 99.27551 | 30584 ft | 518 kts | 195° |
| 2026-04-22 18:53 | 9.54863 | 99.26460 | 29897 ft | 516 kts | 198° |
| 2026-04-22 18:53 | 9.51521 | 99.25155 | 29158 ft | 513 kts | 202° |
| 2026-04-22 18:53 | 9.48343 | 99.23534 | 28502 ft | 508 kts | 207° |
| 2026-04-22 18:53 | 9.45250 | 99.21833 | 27878 ft | 503 kts | 207° |
| 2026-04-22 18:54 | 9.42194 | 99.20145 | 27268 ft | 499 kts | 207° |
| 2026-04-22 18:54 | 9.39196 | 99.18497 | 26685 ft | 494 kts | 207° |
| 2026-04-22 18:54 | 9.36178 | 99.16852 | 26082 ft | 490 kts | 207° |
| 2026-04-22 18:54 | 9.33186 | 99.15231 | 25498 ft | 487 kts | 207° |
| 2026-04-22 18:55 | 9.31174 | 99.14146 | 25092 ft | 485 kts | 207° |
| 2026-04-22 18:55 | 9.27242 | 99.12030 | 24307 ft | 481 kts | 206° |
| 2026-04-22 18:55 | 9.24285 | 99.10440 | 23726 ft | 478 kts | 207° |
| 2026-04-22 18:55 | 9.21364 | 99.08870 | 23071 ft | 469 kts | 206° |
| 2026-04-22 18:56 | 9.18514 | 99.07336 | 22455 ft | 460 kts | 207° |
| 2026-04-22 18:56 | 9.15694 | 99.05819 | 21885 ft | 457 kts | 207° |
| 2026-04-22 18:56 | 9.12932 | 99.04334 | 21322 ft | 454 kts | 206° |
| 2026-04-22 18:56 | 9.10158 | 99.02842 | 20763 ft | 451 kts | 207° |
| 2026-04-22 18:57 | 9.07391 | 99.01352 | 20223 ft | 448 kts | 207° |
| 2026-04-22 18:57 | 9.04650 | 98.99879 | 19674 ft | 445 kts | 207° |
| 2026-04-22 18:57 | 9.01920 | 98.98410 | 19118 ft | 443 kts | 206° |
| 2026-04-22 18:57 | 8.99200 | 98.96949 | 18559 ft | 441 kts | 207° |
| 2026-04-22 18:58 | 8.96493 | 98.95495 | 17994 ft | 439 kts | 207° |
| 2026-04-22 18:58 | 8.93812 | 98.94053 | 17373 ft | 428 kts | 207° |
| 2026-04-22 18:58 | 8.91221 | 98.92659 | 16846 ft | 420 kts | 207° |
| 2026-04-22 18:58 | 8.88638 | 98.91272 | 16312 ft | 418 kts | 207° |
| 2026-04-22 18:59 | 8.86069 | 98.89894 | 15789 ft | 416 kts | 207° |
| 2026-04-22 18:59 | 8.83549 | 98.88539 | 15281 ft | 414 kts | 207° |
| 2026-04-22 18:59 | 8.81033 | 98.87145 | 14752 ft | 412 kts | 210° |
| 2026-04-22 18:59 | 8.78665 | 98.85511 | 14231 ft | 411 kts | 218° |
| 2026-04-22 19:00 | 8.77193 | 98.84310 | 13881 ft | 410 kts | 219° |
| 2026-04-22 19:00 | 8.74239 | 98.81868 | 13125 ft | 408 kts | 219° |
| 2026-04-22 19:00 | 8.72086 | 98.80090 | 12581 ft | 393 kts | 219° |
| 2026-04-22 19:00 | 8.69997 | 98.78375 | 12135 ft | 390 kts | 218° |
| 2026-04-22 19:01 | 8.67896 | 98.76656 | 11725 ft | 385 kts | 218° |
| 2026-04-22 19:01 | 8.65816 | 98.74959 | 11246 ft | 383 kts | 218° |
| 2026-04-22 19:01 | 8.63756 | 98.73282 | 11053 ft | 373 kts | 218° |
| 2026-04-22 19:01 | 8.61759 | 98.71658 | 10879 ft | 363 kts | 218° |
| 2026-04-22 19:02 | 8.59839 | 98.70097 | 10726 ft | 353 kts | 218° |
| 2026-04-22 19:02 | 8.57951 | 98.68562 | 10564 ft | 343 kts | 218° |
| 2026-04-22 19:02 | 8.56113 | 98.67068 | 10440 ft | 334 kts | 218° |
| 2026-04-22 19:02 | 8.54331 | 98.65619 | 10289 ft | 325 kts | 218° |
| 2026-04-22 19:03 | 8.52596 | 98.64210 | 10153 ft | 315 kts | 218° |
| 2026-04-22 19:03 | 8.50909 | 98.62839 | 10026 ft | 307 kts | 218° |
| 2026-04-22 19:03 | 8.49203 | 98.61583 | 9801 ft | 301 kts | 211° |
| 2026-04-22 19:03 | 8.47416 | 98.60506 | 9558 ft | 297 kts | 209° |
| 2026-04-22 19:04 | 8.45637 | 98.59477 | 9305 ft | 292 kts | 209° |
| 2026-04-22 19:04 | 8.44014 | 98.58527 | 9083 ft | 289 kts | 209° |
| 2026-04-22 19:04 | 8.42293 | 98.57501 | 8847 ft | 287 kts | 210° |
| 2026-04-22 19:04 | 8.40601 | 98.56480 | 8620 ft | 285 kts | 210° |
| 2026-04-22 19:05 | 8.38909 | 98.55456 | 8384 ft | 283 kts | 210° |
| 2026-04-22 19:05 | 8.37228 | 98.54437 | 8154 ft | 279 kts | 209° |
| 2026-04-22 19:05 | 8.35463 | 98.53763 | 7859 ft | 269 kts | 184° |
| 2026-04-22 19:05 | 8.33625 | 98.53841 | 7593 ft | 261 kts | 173° |
| 2026-04-22 19:06 | 8.31817 | 98.54028 | 7292 ft | 260 kts | 173° |
| 2026-04-22 19:06 | 8.30017 | 98.54205 | 6981 ft | 260 kts | 173° |
| 2026-04-22 19:06 | 8.28222 | 98.54377 | 6720 ft | 256 kts | 173° |
| 2026-04-22 19:07 | 8.24818 | 98.54700 | 6069 ft | 233 kts | 174° |
| 2026-04-22 19:07 | 8.23250 | 98.54848 | 5771 ft | 215 kts | 174° |
| 2026-04-22 19:07 | 8.21798 | 98.54985 | 5533 ft | 211 kts | 174° |
| 2026-04-22 19:07 | 8.20333 | 98.55124 | 5305 ft | 212 kts | 174° |
| 2026-04-22 19:08 | 8.18955 | 98.55254 | 5073 ft | 211 kts | 174° |
| 2026-04-22 19:08 | 8.17500 | 98.55391 | 4820 ft | 210 kts | 174° |
| 2026-04-22 19:08 | 8.16048 | 98.55528 | 4577 ft | 208 kts | 174° |
| 2026-04-22 19:08 | 8.14629 | 98.55419 | 4286 ft | 205 kts | 203° |
| 2026-04-22 19:09 | 8.13593 | 98.54495 | 4068 ft | 201 kts | 243° |
| 2026-04-22 19:09 | 8.13208 | 98.53182 | 3871 ft | 188 kts | 259° |
| 2026-04-22 19:09 | 8.13043 | 98.52343 | 3701 ft | 180 kts | 258° |
| 2026-04-22 19:09 | 8.12774 | 98.50783 | 3442 ft | 166 kts | 262° |
| 2026-04-22 19:10 | 8.12652 | 98.49619 | 3257 ft | 168 kts | 265° |
| 2026-04-22 19:10 | 8.12558 | 98.48434 | 3057 ft | 170 kts | 266° |
| 2026-04-22 19:10 | 8.12473 | 98.47249 | 2835 ft | 168 kts | 266° |
| 2026-04-22 19:10 | 8.12393 | 98.46083 | 2635 ft | 165 kts | 266° |
| 2026-04-22 19:11 | 8.12314 | 98.44933 | 2434 ft | 164 kts | 266° |
| 2026-04-22 19:11 | 8.12235 | 98.43777 | 2227 ft | 165 kts | 266° |
| 2026-04-22 19:11 | 8.12155 | 98.42616 | 1999 ft | 165 kts | 266° |
| 2026-04-22 19:11 | 8.12080 | 98.41465 | 1788 ft | 163 kts | 267° |
| 2026-04-22 19:12 | 8.12033 | 98.40338 | 1644 ft | 164 kts | 268° |
| 2026-04-22 19:12 | 8.11994 | 98.39183 | 1430 ft | 165 kts | 267° |
| 2026-04-22 19:12 | 8.11922 | 98.38033 | 1221 ft | 164 kts | 265° |
| 2026-04-22 19:12 | 8.11818 | 98.36892 | 976 ft | 162 kts | 264° |
| 2026-04-22 19:13 | 8.11726 | 98.36019 | 797 ft | 162 kts | 264° |
| 2026-04-22 19:13 | 8.11658 | 98.35397 | 673 ft | 162 kts | 264° |
| 2026-04-22 19:13 | 8.11562 | 98.34539 | 524 ft | 160 kts | 264° |
| 2026-04-22 19:13 | 8.11472 | 98.33408 | 233 ft | 164 kts | 266° |
| 2026-04-22 19:14 | 8.11375 | 98.32332 | 91 ft | 153 kts | 265° |
| 2026-04-22 19:14 | 8.11316 | 98.31604 | 95 ft | 98 kts | 264° |
| 2026-04-22 19:14 | 8.11274 | 98.31161 | 94 ft | 57 kts | 265° |
| 2026-04-22 19:14 | 8.11242 | 98.30801 | 89 ft | 38 kts | 265° |
| 2026-04-22 19:15 | 8.11231 | 98.30674 | 90 ft | 6 kts | 265° |
| 2026-04-22 19:15 | 8.11226 | 98.30618 | 89 ft | 6 kts | 264° |
| 2026-04-22 19:15 | 8.11221 | 98.30576 | 89 ft | 6 kts | 260° |
| 2026-04-22 19:15 | 8.11202 | 98.30540 | 92 ft | 6 kts | 226° |
| 2026-04-22 19:16 | 8.11164 | 98.30522 | 92 ft | 6 kts | 199° |
| 2026-04-22 19:16 | 8.11133 | 98.30511 | 90 ft | 0 kts | 198° |
| 2026-04-22 19:17 | 8.11122 | 98.30508 | 90 ft | 4 kts | 195° |
| 2026-04-22 19:17 | 8.11078 | 98.30497 | 90 ft | 9 kts | 194° |
| 2026-04-22 19:17 | 8.11000 | 98.30477 | 90 ft | 14 kts | 194° |
| 2026-04-22 19:18 | 8.10895 | 98.30451 | 89 ft | 18 kts | 194° |
| 2026-04-22 19:18 | 8.10768 | 98.30414 | 89 ft | 21 kts | 195° |
| 2026-04-22 19:18 | 8.10708 | 98.30398 | 88 ft | 9 kts | 194° |
| 2026-04-22 19:18 | 8.10675 | 98.30418 | 91 ft | 5 kts | 112° |
| 2026-04-22 19:19 | 8.10660 | 98.30460 | 89 ft | 7 kts | 107° |
| 2026-04-22 19:19 | 8.10659 | 98.30465 | 88 ft | 0 kts | 107° |